Aeroporto :
LOGIN :

Iscrizione | Disclaimer

   EN    FR    IT 

 










Sommario :    VFR   VFR Marginale   IFR   IFR Intensivo   IFR Molto Intensivo
Visibilità : 
Base nubi : 
>= 8 km
>= 3000ft
5 / 8 km
1000 / 3000 ft
1500m / 5 km
500 / 1000 ft
800 / 1500m
200 / 500 ft
< 800m
< 200 ft
Simboli :   Temporali  Nebbia  Neve Forte  Precipitazioni Forti  Vento > 20 kt
SIGMETs :   Varie  Temporali  Ghiacco  Turbolenza  Onda orograficha  Ceneri Vulcaniche






- Altitudine del aeroporto : 65 ft
- Codice IATA : PMO


LICJ - Palermo Punta Raisi

ULTIMO METAR :
  • 051620Z 07010KT 9999 -RA BKN035 17/13 Q1020

METARs OBSOLETI :
  • 051550Z 07010KT 9999 -RA VCSH BKN035 17/12 Q1020
  • 051520Z 06010KT 9999 SCT043 17/14 Q1020
  • 051450Z 05009KT 9999 SCT045 17/14 Q1020
  • 051420Z 03005KT 9999 SCT050 17/15 Q1020
  • 051350Z 04006KT 9999 SCT050 18/14 Q1020

TAF TAF LICJ
Valido dal 05 a 12 ore il 06 a 12 ore UTC


051100Z 0512/0612 22012KT 9999 FEW030
BECMG 0516/0518 VRB05KT



MetMap, La meteo Aeronautica in un colpo d'occhio ! - Copyright ORBIFLY Dicembre 2007 - Disclaimer

ORBIFLY MET'MAP TEAM :

Programmazione e sviluppo : Alexandra Zaïnal
Concezione : Baudouin d'Aumeries
Aiuto per la programmazione : Marc-Olivier Méhu
Supporto tecnico e logistico : Manuel Goepfert
Aiuto per la traduzione : Arnaldo La Scala

Contatto : metmap@orbifly.com




FONTI E CREDITI :

   NOAA